FHV1143 KHVN-KSAV
Flight info
| Callsign | FHV1143 |
|---|---|
| Flight time | N/A |
| Altitude | 36000 |
| Route | BEADS EMJAY Q167 ZJAAY Q97 SAWED GUILD Q409 SESUE LGRHD SOOOP |
| Aircraft | A321/M-SDE3FGHIRWY/LB1 |
Departure
| Time | N/A |
|---|---|
| Airport | Tweed New Haven Airport (KHVN) |
Arrival
| Time | 2026-04-28 02:31 |
|---|---|
| Airport | Savannah Hilton Head International Airport (KSAV) |
| Time | Latitude | Longitude | Altitude | Speed | Heading |
|---|---|---|---|---|---|
| 2026-04-28 01:20 | 38.74571 | -74.75719 | 36337 ft | 505 kts | 231° |
| 2026-04-28 01:20 | 38.71894 | -74.78673 | 36340 ft | 508 kts | 229° |
| 2026-04-28 01:20 | 38.66360 | -74.84388 | 36343 ft | 512 kts | 227° |
| 2026-04-28 01:21 | 38.60794 | -74.89992 | 36348 ft | 512 kts | 227° |
| 2026-04-28 01:21 | 38.55234 | -74.95692 | 36357 ft | 511 kts | 227° |
| 2026-04-28 01:22 | 38.49789 | -75.01446 | 36352 ft | 509 kts | 230° |
| 2026-04-28 01:22 | 38.44415 | -75.07355 | 36348 ft | 510 kts | 228° |
| 2026-04-28 01:23 | 38.38809 | -75.12880 | 36348 ft | 513 kts | 225° |
| 2026-04-28 01:23 | 38.33001 | -75.18196 | 36335 ft | 513 kts | 224° |
| 2026-04-28 01:24 | 38.28186 | -75.22628 | 36339 ft | 512 kts | 225° |
| 2026-04-28 01:24 | 38.21523 | -75.28914 | 36344 ft | 511 kts | 225° |
| 2026-04-28 01:25 | 38.16755 | -75.33449 | 36333 ft | 511 kts | 225° |
| 2026-04-28 01:25 | 38.11102 | -75.38815 | 36335 ft | 510 kts | 225° |
| 2026-04-28 01:26 | 38.05393 | -75.44191 | 36333 ft | 510 kts | 225° |
| 2026-04-28 01:26 | 37.99581 | -75.49432 | 36350 ft | 512 kts | 223° |
| 2026-04-28 01:27 | 37.93682 | -75.54468 | 36349 ft | 516 kts | 221° |
| 2026-04-28 01:27 | 37.87727 | -75.59552 | 36341 ft | 515 kts | 222° |
| 2026-04-28 01:28 | 37.81755 | -75.64618 | 36339 ft | 516 kts | 220° |
| 2026-04-28 01:28 | 37.75577 | -75.69357 | 36339 ft | 519 kts | 217° |
| 2026-04-28 01:29 | 37.69322 | -75.73880 | 36344 ft | 520 kts | 217° |
| 2026-04-28 01:29 | 37.63054 | -75.78479 | 36349 ft | 519 kts | 218° |
| 2026-04-28 01:30 | 37.56824 | -75.83162 | 36354 ft | 520 kts | 218° |
| 2026-04-28 01:30 | 37.51103 | -75.88437 | 36343 ft | 503 kts | 232° |
| 2026-04-28 01:31 | 37.45963 | -75.94473 | 36352 ft | 504 kts | 231° |
| 2026-04-28 01:31 | 37.40781 | -76.00471 | 36347 ft | 505 kts | 231° |
| 2026-04-28 01:32 | 37.35635 | -76.06412 | 36345 ft | 504 kts | 231° |
| 2026-04-28 01:32 | 37.30468 | -76.12386 | 36341 ft | 504 kts | 231° |
| 2026-04-28 01:33 | 37.25307 | -76.18357 | 36341 ft | 504 kts | 231° |
| 2026-04-28 01:33 | 37.20148 | -76.24324 | 36338 ft | 503 kts | 231° |
| 2026-04-28 01:34 | 37.15027 | -76.30239 | 36328 ft | 503 kts | 231° |
| 2026-04-28 01:34 | 37.09859 | -76.36173 | 36329 ft | 503 kts | 230° |
| 2026-04-28 01:35 | 37.04674 | -76.42116 | 36317 ft | 505 kts | 230° |
| 2026-04-28 01:35 | 36.99496 | -76.48036 | 36317 ft | 503 kts | 230° |
| 2026-04-28 01:36 | 36.94360 | -76.53904 | 36334 ft | 502 kts | 230° |
| 2026-04-28 01:36 | 36.89196 | -76.59801 | 36334 ft | 503 kts | 230° |
| 2026-04-28 01:37 | 36.84007 | -76.65698 | 36344 ft | 504 kts | 230° |
| 2026-04-28 01:37 | 36.78840 | -76.71566 | 36347 ft | 504 kts | 230° |
| 2026-04-28 01:38 | 36.73644 | -76.77469 | 36355 ft | 504 kts | 230° |
| 2026-04-28 01:38 | 36.68447 | -76.83358 | 36352 ft | 504 kts | 230° |
| 2026-04-28 01:39 | 36.63262 | -76.89207 | 36347 ft | 502 kts | 230° |
| 2026-04-28 01:39 | 36.58075 | -76.95056 | 36346 ft | 501 kts | 229° |
| 2026-04-28 01:40 | 36.52934 | -77.00843 | 36344 ft | 501 kts | 229° |
| 2026-04-28 01:40 | 36.47762 | -77.06649 | 36344 ft | 501 kts | 229° |
| 2026-04-28 01:41 | 36.42596 | -77.12456 | 36344 ft | 499 kts | 229° |
| 2026-04-28 01:41 | 36.37437 | -77.18238 | 36343 ft | 499 kts | 229° |
| 2026-04-28 01:42 | 36.32308 | -77.23967 | 36343 ft | 499 kts | 229° |
| 2026-04-28 01:42 | 36.26995 | -77.29552 | 36346 ft | 501 kts | 225° |
| 2026-04-28 01:43 | 36.21482 | -77.34804 | 36342 ft | 502 kts | 223° |
| 2026-04-28 01:43 | 36.15908 | -77.40038 | 36337 ft | 502 kts | 224° |
| 2026-04-28 01:44 | 36.10384 | -77.45357 | 36342 ft | 501 kts | 224° |
| 2026-04-28 01:44 | 36.04946 | -77.50676 | 36338 ft | 501 kts | 225° |
| 2026-04-28 01:45 | 35.99465 | -77.56005 | 36335 ft | 501 kts | 224° |
| 2026-04-28 01:45 | 35.93958 | -77.61296 | 36330 ft | 500 kts | 224° |
| 2026-04-28 01:46 | 35.88499 | -77.66544 | 36334 ft | 500 kts | 224° |
| 2026-04-28 01:46 | 35.83006 | -77.71840 | 36327 ft | 500 kts | 224° |
| 2026-04-28 01:47 | 35.77514 | -77.77116 | 36336 ft | 500 kts | 224° |
| 2026-04-28 01:47 | 35.72060 | -77.82338 | 36329 ft | 500 kts | 224° |
| 2026-04-28 01:48 | 35.66557 | -77.87603 | 36333 ft | 500 kts | 224° |
| 2026-04-28 01:48 | 35.61054 | -77.92856 | 36326 ft | 500 kts | 224° |
| 2026-04-28 01:49 | 35.55585 | -77.98065 | 36316 ft | 499 kts | 224° |
| 2026-04-28 01:49 | 35.50094 | -78.03296 | 36319 ft | 499 kts | 223° |
| 2026-04-28 01:50 | 35.44602 | -78.08512 | 36318 ft | 499 kts | 223° |
| 2026-04-28 01:50 | 35.39143 | -78.13680 | 36327 ft | 498 kts | 223° |
| 2026-04-28 01:51 | 35.33629 | -78.18882 | 36323 ft | 499 kts | 223° |
| 2026-04-28 01:51 | 35.28161 | -78.24040 | 36325 ft | 498 kts | 223° |
| 2026-04-28 01:52 | 35.22663 | -78.29236 | 36328 ft | 498 kts | 223° |
| 2026-04-28 01:52 | 35.17169 | -78.34415 | 36326 ft | 498 kts | 223° |
| 2026-04-28 01:53 | 35.11667 | -78.39586 | 36324 ft | 498 kts | 223° |
| 2026-04-28 01:53 | 35.06200 | -78.44715 | 36327 ft | 497 kts | 222° |
| 2026-04-28 01:54 | 35.00712 | -78.49857 | 36318 ft | 497 kts | 222° |
| 2026-04-28 01:54 | 34.95194 | -78.55013 | 36312 ft | 498 kts | 222° |
| 2026-04-28 01:55 | 34.89723 | -78.60117 | 36320 ft | 497 kts | 222° |
| 2026-04-28 01:55 | 34.84221 | -78.65248 | 36318 ft | 497 kts | 222° |
| 2026-04-28 01:56 | 34.78705 | -78.70369 | 36298 ft | 497 kts | 221° |
| 2026-04-28 01:56 | 34.73225 | -78.75457 | 36299 ft | 497 kts | 221° |
| 2026-04-28 01:57 | 34.67710 | -78.80563 | 36306 ft | 497 kts | 221° |
| 2026-04-28 01:57 | 34.62202 | -78.85665 | 36296 ft | 497 kts | 221° |
| 2026-04-28 01:58 | 34.56701 | -78.90750 | 36289 ft | 497 kts | 221° |
| 2026-04-28 01:58 | 34.51171 | -78.95839 | 36292 ft | 498 kts | 221° |
| 2026-04-28 01:59 | 34.45646 | -79.00923 | 36298 ft | 498 kts | 221° |
| 2026-04-28 01:59 | 34.40116 | -79.05922 | 36296 ft | 499 kts | 220° |
| 2026-04-28 02:00 | 34.34425 | -79.10774 | 36295 ft | 500 kts | 218° |
| 2026-04-28 02:00 | 34.28704 | -79.15566 | 36299 ft | 499 kts | 219° |
| 2026-04-28 02:01 | 34.23086 | -79.20498 | 36310 ft | 498 kts | 222° |
| 2026-04-28 02:01 | 34.17749 | -79.25797 | 36299 ft | 495 kts | 224° |
| 2026-04-28 02:02 | 34.12494 | -79.31191 | 36297 ft | 496 kts | 224° |
| 2026-04-28 02:02 | 34.07178 | -79.36505 | 36298 ft | 496 kts | 223° |
| 2026-04-28 02:03 | 34.01837 | -79.41718 | 36299 ft | 497 kts | 223° |
| 2026-04-28 02:03 | 33.96444 | -79.46959 | 36299 ft | 498 kts | 222° |
| 2026-04-28 02:04 | 33.91055 | -79.52214 | 36297 ft | 497 kts | 223° |
| 2026-04-28 02:04 | 33.85448 | -79.57119 | 36291 ft | 502 kts | 211° |
| 2026-04-28 02:05 | 33.79126 | -79.60767 | 36294 ft | 503 kts | 208° |
| 2026-04-28 02:05 | 33.73864 | -79.63755 | 36299 ft | 503 kts | 208° |
| 2026-04-28 02:06 | 33.67539 | -79.67356 | 36298 ft | 503 kts | 208° |
| 2026-04-28 02:06 | 33.61198 | -79.70957 | 36301 ft | 503 kts | 208° |
| 2026-04-28 02:07 | 33.54897 | -79.74514 | 36301 ft | 503 kts | 208° |
| 2026-04-28 02:07 | 33.48572 | -79.78093 | 36308 ft | 502 kts | 208° |
| 2026-04-28 02:08 | 33.42245 | -79.81665 | 36304 ft | 502 kts | 208° |
| 2026-04-28 02:08 | 33.35914 | -79.85234 | 36301 ft | 502 kts | 207° |
| 2026-04-28 02:09 | 33.29589 | -79.88786 | 36298 ft | 501 kts | 207° |
| 2026-04-28 02:09 | 33.23312 | -79.92303 | 36299 ft | 500 kts | 207° |
| 2026-04-28 02:10 | 33.17003 | -79.95850 | 36296 ft | 500 kts | 207° |
| 2026-04-28 02:10 | 33.10746 | -79.99358 | 36298 ft | 499 kts | 207° |
| 2026-04-28 02:11 | 33.04449 | -80.02862 | 36310 ft | 498 kts | 207° |
| 2026-04-28 02:11 | 32.98235 | -80.06324 | 35853 ft | 491 kts | 207° |
| 2026-04-28 02:12 | 32.95142 | -80.08051 | 34715 ft | 492 kts | 207° |
| 2026-04-28 02:12 | 32.92037 | -80.09786 | 33507 ft | 493 kts | 207° |
| 2026-04-28 02:12 | 32.88916 | -80.11526 | 32238 ft | 494 kts | 207° |
| 2026-04-28 02:12 | 32.85797 | -80.13259 | 30936 ft | 495 kts | 207° |
| 2026-04-28 02:13 | 32.82663 | -80.14998 | 29590 ft | 494 kts | 208° |
| 2026-04-28 02:13 | 32.79587 | -80.16703 | 28335 ft | 491 kts | 208° |
| 2026-04-28 02:13 | 32.76500 | -80.18414 | 27197 ft | 485 kts | 208° |
| 2026-04-28 02:13 | 32.73460 | -80.20098 | 26142 ft | 478 kts | 208° |
| 2026-04-28 02:14 | 32.70472 | -80.21755 | 25193 ft | 469 kts | 208° |
| 2026-04-28 02:14 | 32.67532 | -80.23381 | 24564 ft | 463 kts | 207° |
| 2026-04-28 02:14 | 32.64628 | -80.24989 | 23913 ft | 458 kts | 207° |
| 2026-04-28 02:14 | 32.61750 | -80.26586 | 23264 ft | 453 kts | 208° |
| 2026-04-28 02:15 | 32.56759 | -80.30764 | 22115 ft | 435 kts | 228° |
| 2026-04-28 02:15 | 32.54739 | -80.33391 | 21592 ft | 427 kts | 231° |
| 2026-04-28 02:15 | 32.52772 | -80.36006 | 21059 ft | 421 kts | 231° |
| 2026-04-28 02:16 | 32.50831 | -80.38573 | 20579 ft | 415 kts | 231° |
| 2026-04-28 02:16 | 32.48916 | -80.41101 | 20090 ft | 409 kts | 231° |
| 2026-04-28 02:16 | 32.47034 | -80.43586 | 19633 ft | 402 kts | 231° |
| 2026-04-28 02:16 | 32.45207 | -80.45995 | 19181 ft | 396 kts | 231° |
| 2026-04-28 02:17 | 32.43377 | -80.48406 | 18727 ft | 390 kts | 231° |
| 2026-04-28 02:17 | 32.41575 | -80.50782 | 18284 ft | 385 kts | 231° |
| 2026-04-28 02:17 | 32.39801 | -80.53126 | 17837 ft | 380 kts | 231° |
| 2026-04-28 02:17 | 32.38101 | -80.55494 | 17390 ft | 375 kts | 236° |
| 2026-04-28 02:18 | 32.36743 | -80.58097 | 16939 ft | 368 kts | 246° |
| 2026-04-28 02:18 | 32.35739 | -80.60827 | 16499 ft | 364 kts | 250° |
| 2026-04-28 02:18 | 32.34766 | -80.63601 | 15819 ft | 367 kts | 249° |
| 2026-04-28 02:18 | 32.33783 | -80.66388 | 15322 ft | 365 kts | 249° |
| 2026-04-28 02:19 | 32.32802 | -80.69149 | 14862 ft | 362 kts | 249° |
| 2026-04-28 02:19 | 32.31824 | -80.71891 | 14394 ft | 359 kts | 249° |
| 2026-04-28 02:19 | 32.30855 | -80.74607 | 13926 ft | 357 kts | 249° |
| 2026-04-28 02:19 | 32.29903 | -80.77273 | 13444 ft | 355 kts | 248° |
| 2026-04-28 02:20 | 32.28943 | -80.79954 | 12973 ft | 353 kts | 248° |
| 2026-04-28 02:20 | 32.27991 | -80.82624 | 12489 ft | 352 kts | 248° |
| 2026-04-28 02:20 | 32.27037 | -80.85286 | 11998 ft | 351 kts | 248° |
| 2026-04-28 02:20 | 32.26087 | -80.87945 | 11502 ft | 349 kts | 248° |
| 2026-04-28 02:21 | 32.25142 | -80.90593 | 11093 ft | 353 kts | 248° |
| 2026-04-28 02:21 | 32.24186 | -80.93273 | 10979 ft | 347 kts | 248° |
| 2026-04-28 02:21 | 32.23280 | -80.95812 | 10874 ft | 333 kts | 247° |
| 2026-04-28 02:21 | 32.22405 | -80.98258 | 10727 ft | 313 kts | 247° |
| 2026-04-28 02:22 | 32.21570 | -81.00589 | 10332 ft | 303 kts | 247° |
| 2026-04-28 02:22 | 32.20758 | -81.02854 | 10000 ft | 297 kts | 247° |
| 2026-04-28 02:22 | 32.19953 | -81.05101 | 9851 ft | 297 kts | 247° |
| 2026-04-28 02:22 | 32.19146 | -81.07350 | 9723 ft | 297 kts | 247° |
| 2026-04-28 02:23 | 32.18344 | -81.09576 | 9391 ft | 298 kts | 247° |
| 2026-04-28 02:23 | 32.17532 | -81.11834 | 8912 ft | 299 kts | 247° |
| 2026-04-28 02:23 | 32.16719 | -81.14094 | 8535 ft | 297 kts | 247° |
| 2026-04-28 02:23 | 32.16068 | -81.16396 | 8168 ft | 293 kts | 263° |
| 2026-04-28 02:24 | 32.16184 | -81.18762 | 7856 ft | 288 kts | 281° |
| 2026-04-28 02:24 | 32.16579 | -81.21072 | 7468 ft | 286 kts | 282° |
| 2026-04-28 02:24 | 32.16997 | -81.23369 | 7074 ft | 285 kts | 282° |
| 2026-04-28 02:24 | 32.17415 | -81.25635 | 6712 ft | 285 kts | 282° |
| 2026-04-28 02:25 | 32.17839 | -81.27915 | 6386 ft | 282 kts | 282° |
| 2026-04-28 02:25 | 32.18248 | -81.30119 | 6244 ft | 262 kts | 283° |
| 2026-04-28 02:25 | 32.18631 | -81.32162 | 5855 ft | 248 kts | 283° |
| 2026-04-28 02:25 | 32.19005 | -81.34141 | 5301 ft | 245 kts | 283° |
| 2026-04-28 02:26 | 32.19376 | -81.36102 | 4729 ft | 245 kts | 283° |
| 2026-04-28 02:26 | 32.19614 | -81.38058 | 4165 ft | 242 kts | 274° |
| 2026-04-28 02:26 | 32.19470 | -81.40034 | 3558 ft | 237 kts | 247° |
| 2026-04-28 02:26 | 32.18539 | -81.41553 | 2957 ft | 230 kts | 213° |
| 2026-04-28 02:27 | 32.17074 | -81.42193 | 2467 ft | 224 kts | 177° |
| 2026-04-28 02:27 | 32.15520 | -81.42183 | 2137 ft | 226 kts | 179° |
| 2026-04-28 02:27 | 32.14033 | -81.41788 | 2009 ft | 220 kts | 143° |
| 2026-04-28 02:27 | 32.13133 | -81.40453 | 2011 ft | 205 kts | 107° |
| 2026-04-28 02:28 | 32.13002 | -81.38806 | 2022 ft | 201 kts | 89° |
| 2026-04-28 02:28 | 32.12996 | -81.37168 | 2009 ft | 199 kts | 90° |
| 2026-04-28 02:28 | 32.12987 | -81.35538 | 2010 ft | 197 kts | 89° |
| 2026-04-28 02:28 | 32.12976 | -81.33951 | 1958 ft | 190 kts | 90° |
| 2026-04-28 02:29 | 32.12964 | -81.32473 | 1788 ft | 168 kts | 90° |
| 2026-04-28 02:29 | 32.12953 | -81.31150 | 1572 ft | 152 kts | 89° |
| 2026-04-28 02:29 | 32.12944 | -81.29942 | 1372 ft | 144 kts | 90° |
| 2026-04-28 02:29 | 32.12934 | -81.28773 | 1187 ft | 141 kts | 90° |
| 2026-04-28 02:30 | 32.12924 | -81.27617 | 1003 ft | 140 kts | 90° |
| 2026-04-28 02:30 | 32.12914 | -81.26467 | 820 ft | 140 kts | 90° |
| 2026-04-28 02:30 | 32.12904 | -81.25320 | 634 ft | 139 kts | 90° |
| 2026-04-28 02:30 | 32.12901 | -81.24180 | 438 ft | 139 kts | 89° |
| 2026-04-28 02:31 | 32.12890 | -81.23040 | 256 ft | 139 kts | 91° |
| 2026-04-28 02:31 | 32.12879 | -81.21900 | 100 ft | 139 kts | 90° |
| 2026-04-28 02:31 | 32.12871 | -81.20817 | 44 ft | 123 kts | 91° |
| 2026-04-28 02:31 | 32.12860 | -81.20157 | 43 ft | 39 kts | 90° |
| 2026-04-28 02:32 | 32.12861 | -81.19887 | 43 ft | 21 kts | 84° |
| 2026-04-28 02:32 | 32.12925 | -81.19815 | 47 ft | 10 kts | 2° |
| 2026-04-28 02:32 | 32.12980 | -81.19815 | 50 ft | 8 kts | 360° |
| 2026-04-28 02:32 | 32.13065 | -81.19815 | 49 ft | 16 kts | 360° |
| 2026-04-28 02:33 | 32.13208 | -81.19817 | 53 ft | 25 kts | 359° |
| 2026-04-28 02:33 | 32.13394 | -81.19820 | 53 ft | 22 kts | 359° |
| 2026-04-28 02:33 | 32.13496 | -81.19820 | 52 ft | 13 kts | 0° |
| 2026-04-28 02:33 | 32.13555 | -81.19878 | 50 ft | 12 kts | 277° |
| 2026-04-28 02:34 | 32.13565 | -81.19984 | 50 ft | 14 kts | 276° |
| 2026-04-28 02:34 | 32.13572 | -81.20094 | 52 ft | 12 kts | 269° |
| 2026-04-28 02:34 | 32.13571 | -81.20189 | 53 ft | 13 kts | 269° |
| 2026-04-28 02:34 | 32.13570 | -81.20315 | 54 ft | 16 kts | 269° |
| 2026-04-28 02:35 | 32.13574 | -81.20445 | 54 ft | 15 kts | 286° |
| 2026-04-28 02:35 | 32.13640 | -81.20541 | 53 ft | 15 kts | 314° |
| 2026-04-28 02:35 | 32.13670 | -81.20650 | 51 ft | 13 kts | 261° |
| 2026-04-28 02:35 | 32.13637 | -81.20699 | 51 ft | 6 kts | 218° |
| 2026-04-28 02:36 | 32.13613 | -81.20719 | 54 ft | 3 kts | 216° |
| 2026-04-28 02:36 | 32.13609 | -81.20723 | 54 ft | 0 kts | 216° |